createdAt,value
2018-06-24T00:00:32.388Z,0.00
2018-06-24T00:01:32.386Z,0.00
2018-06-24T00:02:32.387Z,0.00
2018-06-24T00:03:32.382Z,0.00
2018-06-24T00:04:32.378Z,0.00
2018-06-24T00:05:32.377Z,0.00
2018-06-24T00:06:32.375Z,0.00
2018-06-24T00:07:32.372Z,0.00
2018-06-24T00:08:32.373Z,0.00
2018-06-24T00:09:32.362Z,0.00
2018-06-24T00:10:32.365Z,0.00
2018-06-24T00:11:32.363Z,0.00
2018-06-24T00:12:32.361Z,0.00
2018-06-24T00:13:32.382Z,0.00
2018-06-24T00:14:32.358Z,0.00
2018-06-24T00:15:32.354Z,0.00
2018-06-24T00:16:32.351Z,0.00
2018-06-24T00:17:32.351Z,0.00
2018-06-24T00:18:32.347Z,0.00
2018-06-24T00:19:32.343Z,0.00
2018-06-24T00:20:32.342Z,0.00
2018-06-24T00:21:32.337Z,0.00
2018-06-24T00:22:32.338Z,0.00
2018-06-24T00:23:32.337Z,0.00
2018-06-24T00:24:32.332Z,0.00
2018-06-24T00:25:32.331Z,0.00
2018-06-24T00:26:32.331Z,0.00
2018-06-24T00:27:32.328Z,0.00
2018-06-24T00:28:32.324Z,0.00
2018-06-24T00:29:32.321Z,0.00
2018-06-24T00:30:32.319Z,0.00
2018-06-24T00:31:32.321Z,0.00
2018-06-24T00:32:32.314Z,0.00
2018-06-24T00:33:32.312Z,0.00
2018-06-24T00:34:32.309Z,0.00
2018-06-24T00:35:32.308Z,0.00
2018-06-24T00:36:32.305Z,0.00
2018-06-24T00:37:32.304Z,0.00
2018-06-24T00:38:32.302Z,0.00
2018-06-24T00:39:32.303Z,0.00
2018-06-24T00:40:32.295Z,0.00
2018-06-24T00:41:32.296Z,0.00
2018-06-24T00:42:32.293Z,0.00
2018-06-24T00:43:32.289Z,0.00
2018-06-24T00:44:32.285Z,0.00
2018-06-24T00:45:32.285Z,0.00
2018-06-24T00:46:32.283Z,0.00
2018-06-24T00:47:32.277Z,0.00
2018-06-24T00:48:32.277Z,0.00
2018-06-24T00:49:32.287Z,0.00
2018-06-24T00:50:32.273Z,0.00
2018-06-24T00:51:32.274Z,0.00
2018-06-24T00:52:32.269Z,0.00
2018-06-24T00:53:32.268Z,0.00
2018-06-24T00:54:32.263Z,0.00
2018-06-24T00:55:32.259Z,0.00
2018-06-24T00:56:32.259Z,0.00
2018-06-24T00:57:32.257Z,0.00
2018-06-24T00:58:32.255Z,0.00
2018-06-24T00:59:32.253Z,0.00
2018-06-24T01:00:32.250Z,0.00
2018-06-24T01:01:32.247Z,0.00
2018-06-24T01:02:32.246Z,0.00
2018-06-24T01:03:32.242Z,0.00
2018-06-24T01:04:32.240Z,0.00
2018-06-24T01:05:32.240Z,0.00
2018-06-24T01:06:32.241Z,0.00
2018-06-24T01:07:32.234Z,0.00
2018-06-24T01:08:32.231Z,0.00
2018-06-24T01:09:32.227Z,0.00
2018-06-24T01:10:32.227Z,0.00
2018-06-24T01:11:32.224Z,0.00
2018-06-24T01:12:32.221Z,0.00
2018-06-24T01:13:32.218Z,0.00
2018-06-24T01:14:32.215Z,0.00
2018-06-24T01:15:32.214Z,0.00
2018-06-24T01:16:32.210Z,0.00
2018-06-24T01:17:32.208Z,0.00
2018-06-24T01:18:32.208Z,0.00
2018-06-24T01:19:32.204Z,0.00
2018-06-24T01:20:32.203Z,0.00
2018-06-24T01:21:32.199Z,0.00
2018-06-24T01:22:32.198Z,0.00
2018-06-24T01:23:32.193Z,0.00
2018-06-24T01:24:32.192Z,0.00
2018-06-24T01:25:32.188Z,0.00
2018-06-24T01:26:32.185Z,0.00
2018-06-24T01:27:32.186Z,0.00
2018-06-24T01:28:32.180Z,0.00
2018-06-24T01:29:32.177Z,0.00
2018-06-24T01:30:32.178Z,0.00
2018-06-24T01:31:32.176Z,0.00
2018-06-24T01:32:32.174Z,0.00
2018-06-24T01:33:32.173Z,0.00
2018-06-24T01:34:32.167Z,0.00
2018-06-24T01:35:32.163Z,0.00
2018-06-24T01:36:32.162Z,0.00
2018-06-24T01:37:32.160Z,0.00
2018-06-24T01:38:32.158Z,0.00
2018-06-24T01:39:32.160Z,0.00
2018-06-24T01:40:32.150Z,0.00
2018-06-24T01:41:32.151Z,0.00
2018-06-24T01:42:32.149Z,0.00
2018-06-24T01:43:32.146Z,0.00
2018-06-24T01:44:32.143Z,0.00
2018-06-24T01:45:32.146Z,0.00
2018-06-24T01:46:32.139Z,0.00
2018-06-24T01:47:32.197Z,0.00
2018-06-24T01:48:32.134Z,0.00
2018-06-24T01:49:32.132Z,0.00
2018-06-24T01:50:32.130Z,0.00
2018-06-24T01:51:32.128Z,0.00
2018-06-24T01:52:32.124Z,0.00
2018-06-24T01:53:32.122Z,0.00
2018-06-24T01:54:32.120Z,0.00
2018-06-24T01:55:32.117Z,0.00
2018-06-24T01:56:32.114Z,0.00
2018-06-24T01:57:32.112Z,0.00
2018-06-24T01:58:32.109Z,0.00
2018-06-24T01:59:32.107Z,0.00
2018-06-24T02:00:32.105Z,0.00
2018-06-24T02:01:32.102Z,0.00
2018-06-24T02:02:32.098Z,0.00
2018-06-24T02:03:32.097Z,0.00
2018-06-24T02:04:32.091Z,0.00
2018-06-24T02:05:32.092Z,0.00
2018-06-24T02:06:32.093Z,0.00
2018-06-24T02:07:32.090Z,0.00
2018-06-24T02:08:32.085Z,0.00
2018-06-24T02:09:32.089Z,0.00
2018-06-24T02:10:32.082Z,0.00
2018-06-24T02:11:32.077Z,4.00
2018-06-24T02:12:32.080Z,4.00
2018-06-24T02:13:32.074Z,0.00
2018-06-24T02:14:32.071Z,0.00
2018-06-24T02:15:32.069Z,4.00
2018-06-24T02:16:32.068Z,4.00
2018-06-24T02:17:32.064Z,4.00
2018-06-24T02:18:32.062Z,4.00
2018-06-24T02:19:32.059Z,4.00
2018-06-24T02:20:32.056Z,4.00
2018-06-24T02:21:32.054Z,4.00
2018-06-24T02:22:32.053Z,4.00
2018-06-24T02:23:32.047Z,4.00
2018-06-24T02:24:32.046Z,8.00
2018-06-24T02:25:32.044Z,4.00
2018-06-24T02:26:32.042Z,8.00
2018-06-24T02:27:32.040Z,8.00
2018-06-24T02:28:32.035Z,8.00
2018-06-24T02:29:32.035Z,8.00
2018-06-24T02:30:32.036Z,8.00
2018-06-24T02:31:32.029Z,8.00
2018-06-24T02:32:32.027Z,8.00
2018-06-24T02:33:32.024Z,12.00
2018-06-24T02:34:32.019Z,8.00
2018-06-24T02:35:32.021Z,8.00
2018-06-24T02:36:32.013Z,12.00
2018-06-24T02:37:32.014Z,8.00
2018-06-24T02:38:32.014Z,16.00
2018-06-24T02:39:32.010Z,20.00
2018-06-24T02:40:32.005Z,20.00
2018-06-24T02:41:32.005Z,20.00
2018-06-24T02:42:32.000Z,28.00
2018-06-24T02:43:31.999Z,36.00
2018-06-24T02:44:31.999Z,36.00
2018-06-24T02:45:31.993Z,40.00
2018-06-24T02:46:31.996Z,44.00
2018-06-24T02:47:31.989Z,40.00
2018-06-24T02:48:31.986Z,44.00
2018-06-24T02:49:31.984Z,52.00
2018-06-24T02:50:31.987Z,56.00
2018-06-24T02:51:31.982Z,60.00
2018-06-24T02:52:31.981Z,44.00
2018-06-24T02:53:32.027Z,56.00
2018-06-24T02:54:31.972Z,52.00
2018-06-24T02:55:31.969Z,48.00
2018-06-24T02:56:31.965Z,52.00
2018-06-24T02:57:31.963Z,64.00
2018-06-24T02:58:31.965Z,72.00
2018-06-24T02:59:31.963Z,60.00
2018-06-24T03:00:31.956Z,64.00
2018-06-24T03:01:31.953Z,72.00
2018-06-24T03:02:31.967Z,68.00
2018-06-24T03:03:31.950Z,68.00
2018-06-24T03:04:31.945Z,72.00
2018-06-24T03:05:31.943Z,92.00
2018-06-24T03:06:31.942Z,108.00
2018-06-24T03:07:31.942Z,108.00
2018-06-24T03:08:31.937Z,84.00
2018-06-24T03:09:31.935Z,80.00
2018-06-24T03:10:31.934Z,88.00
2018-06-24T03:11:31.932Z,100.00
2018-06-24T03:12:31.927Z,88.00
2018-06-24T03:13:31.926Z,96.00
2018-06-24T03:14:31.923Z,112.00
2018-06-24T03:15:31.920Z,124.00
2018-06-24T03:16:31.918Z,132.00
2018-06-24T03:17:31.927Z,164.00
2018-06-24T03:18:31.913Z,188.00
2018-06-24T03:19:31.911Z,180.00
2018-06-24T03:20:31.907Z,180.00
2018-06-24T03:21:31.906Z,212.00
2018-06-24T03:22:31.903Z,208.00
2018-06-24T03:23:31.900Z,248.00
2018-06-24T03:24:31.898Z,228.00
2018-06-24T03:25:31.895Z,228.00
2018-06-24T03:26:31.893Z,228.00
2018-06-24T03:27:31.891Z,224.00
2018-06-24T03:28:31.889Z,248.00
2018-06-24T03:29:31.886Z,216.00
2018-06-24T03:30:31.901Z,280.00
2018-06-24T03:31:31.882Z,288.00
2018-06-24T03:32:31.879Z,288.00
2018-06-24T03:33:31.879Z,288.00
2018-06-24T03:34:31.874Z,300.00
2018-06-24T03:35:31.872Z,276.00
2018-06-24T03:36:31.868Z,284.00
2018-06-24T03:37:31.868Z,292.00
2018-06-24T03:38:31.865Z,308.00
2018-06-24T03:39:31.862Z,272.00
2018-06-24T03:40:31.862Z,276.00
2018-06-24T03:41:31.857Z,292.00
2018-06-24T03:42:31.855Z,332.00
2018-06-24T03:43:31.859Z,396.00
2018-06-24T03:44:31.852Z,428.00
2018-06-24T03:45:31.848Z,504.00
2018-06-24T03:46:31.844Z,488.00
2018-06-24T03:47:31.842Z,552.00
2018-06-24T03:48:31.845Z,568.00
2018-06-24T03:49:31.841Z,556.00
2018-06-24T03:50:31.834Z,592.00
2018-06-24T03:51:31.830Z,588.00
2018-06-24T03:52:31.829Z,520.00
2018-06-24T03:53:31.826Z,480.00
2018-06-24T03:54:31.824Z,508.00
2018-06-24T03:55:31.832Z,468.00
2018-06-24T03:56:31.822Z,524.00
2018-06-24T03:57:31.815Z,532.00
2018-06-24T03:58:31.817Z,532.00
2018-06-24T03:59:31.812Z,460.00
2018-06-24T04:00:31.808Z,504.00
2018-06-24T04:01:31.807Z,524.00
2018-06-24T04:02:31.805Z,564.00
2018-06-24T04:03:31.801Z,640.00
2018-06-24T04:04:31.797Z,720.00
2018-06-24T04:05:31.797Z,704.00
2018-06-24T04:06:31.794Z,640.00
2018-06-24T04:07:31.792Z,632.00
2018-06-24T04:08:31.789Z,592.00
2018-06-24T04:09:31.788Z,688.00
2018-06-24T04:10:31.785Z,636.00
2018-06-24T04:11:31.783Z,724.00
2018-06-24T04:12:31.778Z,840.00
2018-06-24T04:13:31.776Z,808.00
2018-06-24T04:14:31.775Z,848.00
2018-06-24T04:15:31.772Z,872.00
2018-06-24T04:16:31.770Z,1000.00
2018-06-24T04:17:31.766Z,924.00
2018-06-24T04:18:31.764Z,1104.00
2018-06-24T04:19:31.761Z,1152.00
2018-06-24T04:20:31.760Z,1188.00
2018-06-24T04:21:31.758Z,1268.00
2018-06-24T04:22:31.754Z,1416.00
2018-06-24T04:23:31.752Z,1340.00
2018-06-24T04:24:31.750Z,1232.00
2018-06-24T04:25:31.766Z,1436.00
2018-06-24T04:26:31.745Z,1224.00
2018-06-24T04:27:31.742Z,1192.00
2018-06-24T04:28:31.738Z,1364.00
2018-06-24T04:29:31.738Z,1244.00
2018-06-24T04:30:31.736Z,1284.00
2018-06-24T04:31:31.731Z,1416.00
2018-06-24T04:32:31.730Z,1312.00
2018-06-24T04:33:31.736Z,1220.00
2018-06-24T04:34:31.724Z,1408.00
2018-06-24T04:35:31.723Z,1348.00
2018-06-24T04:36:31.722Z,1232.00
2018-06-24T04:37:31.729Z,1160.00
2018-06-24T04:38:31.714Z,1152.00
2018-06-24T04:39:31.717Z,1060.00
2018-06-24T04:40:31.709Z,904.00
2018-06-24T04:41:31.707Z,1168.00
2018-06-24T04:42:31.708Z,1172.00
2018-06-24T04:43:31.705Z,1232.00
2018-06-24T04:44:31.701Z,1156.00
2018-06-24T04:45:31.701Z,1464.00
2018-06-24T04:46:31.696Z,1288.00
2018-06-24T04:47:31.705Z,1488.00
2018-06-24T04:48:31.696Z,1532.00
2018-06-24T04:49:31.696Z,1500.00
2018-06-24T04:50:31.688Z,1360.00
2018-06-24T04:51:31.700Z,1316.00
2018-06-24T04:52:31.683Z,1512.00
2018-06-24T04:53:31.680Z,1636.00
2018-06-24T04:54:31.683Z,1792.00
2018-06-24T04:55:31.679Z,1916.00
2018-06-24T04:56:31.673Z,1876.00
2018-06-24T04:57:31.670Z,1932.00
2018-06-24T04:58:31.667Z,1964.00
2018-06-24T04:59:31.671Z,1908.00
2018-06-24T05:00:31.668Z,1952.00
2018-06-24T05:01:31.661Z,2144.00
2018-06-24T05:02:31.661Z,1952.00
2018-06-24T05:03:31.658Z,1780.00
2018-06-24T05:04:31.655Z,1956.00
2018-06-24T05:05:31.652Z,1820.00
2018-06-24T05:06:31.728Z,1824.00
2018-06-24T05:07:31.649Z,1732.00
2018-06-24T05:08:31.647Z,1912.00
2018-06-24T05:09:31.644Z,1868.00
2018-06-24T05:10:31.642Z,1904.00
2018-06-24T05:11:31.641Z,1984.00
2018-06-24T05:12:31.639Z,1964.00
2018-06-24T05:13:31.636Z,1872.00
2018-06-24T05:14:31.633Z,2224.00
2018-06-24T05:15:31.632Z,2468.00
2018-06-24T05:16:31.625Z,2624.00
2018-06-24T05:17:31.629Z,2864.00
2018-06-24T05:18:31.627Z,2660.00
2018-06-24T05:19:31.623Z,2112.00
2018-06-24T05:20:31.620Z,1896.00
2018-06-24T05:21:31.617Z,1640.00
2018-06-24T05:22:31.616Z,1608.00
2018-06-24T05:23:31.618Z,1544.00
2018-06-24T05:24:31.608Z,1308.00
2018-06-24T05:25:31.610Z,1500.00
2018-06-24T05:26:31.608Z,1320.00
2018-06-24T05:27:31.650Z,1472.00
2018-06-24T05:28:31.602Z,1452.00
2018-06-24T05:29:31.606Z,1316.00
2018-06-24T05:30:31.598Z,1664.00
2018-06-24T05:31:31.603Z,1580.00
2018-06-24T05:32:31.596Z,1628.00
2018-06-24T05:33:31.593Z,1404.00
2018-06-24T05:34:31.592Z,1680.00
2018-06-24T05:35:31.594Z,1668.00
2018-06-24T05:36:31.589Z,1624.00
2018-06-24T05:37:31.586Z,1704.00
2018-06-24T05:38:31.585Z,1704.00
2018-06-24T05:39:31.582Z,1748.00
2018-06-24T05:40:31.584Z,1868.00
2018-06-24T05:41:31.579Z,2012.00
2018-06-24T05:42:31.576Z,2144.00
2018-06-24T05:43:31.576Z,2148.00
2018-06-24T05:44:31.571Z,2108.00
2018-06-24T05:45:31.570Z,1916.00
2018-06-24T05:46:31.569Z,2300.00
2018-06-24T05:47:31.566Z,2272.00
2018-06-24T05:48:31.560Z,2444.00
2018-06-24T05:49:31.562Z,2288.00
2018-06-24T05:50:31.559Z,2268.00
2018-06-24T05:51:31.561Z,2288.00
2018-06-24T05:52:31.557Z,2332.00
2018-06-24T05:53:31.553Z,2660.00
2018-06-24T05:54:31.555Z,2384.00
2018-06-24T05:55:31.552Z,2548.00
2018-06-24T05:56:31.547Z,2432.00
2018-06-24T05:57:31.545Z,2496.00
2018-06-24T05:58:31.541Z,2716.00
2018-06-24T05:59:31.541Z,2872.00
2018-06-24T06:00:31.538Z,2760.00
2018-06-24T06:01:31.536Z,3144.00
2018-06-24T06:02:31.535Z,3388.00
2018-06-24T06:03:31.533Z,3292.00
2018-06-24T06:04:31.529Z,3804.00
2018-06-24T06:05:31.529Z,3572.00
2018-06-24T06:06:31.527Z,4268.00
2018-06-24T06:07:31.525Z,4272.00
2018-06-24T06:08:31.526Z,4720.00
2018-06-24T06:09:31.521Z,4624.00
2018-06-24T06:10:31.590Z,4176.00
2018-06-24T06:11:31.520Z,3964.00
2018-06-24T06:12:31.513Z,3704.00
2018-06-24T06:13:31.513Z,3072.00
2018-06-24T06:14:31.512Z,3448.00
2018-06-24T06:15:31.510Z,3620.00
2018-06-24T06:16:31.507Z,3004.00
2018-06-24T06:17:31.506Z,3116.00
2018-06-24T06:18:31.508Z,4140.00
2018-06-24T06:19:31.502Z,4164.00
2018-06-24T06:20:31.499Z,3620.00
2018-06-24T06:21:31.499Z,3624.00
2018-06-24T06:22:31.496Z,4428.00
2018-06-24T06:23:31.494Z,4412.00
2018-06-24T06:24:31.492Z,4500.00
2018-06-24T06:25:31.491Z,3436.00
2018-06-24T06:26:31.489Z,4168.00
2018-06-24T06:27:31.486Z,3816.00
2018-06-24T06:28:31.484Z,3816.00
2018-06-24T06:29:31.485Z,3760.00
2018-06-24T06:30:31.483Z,3740.00
2018-06-24T06:31:31.480Z,4416.00
2018-06-24T06:32:31.478Z,4360.00
2018-06-24T06:33:31.476Z,4316.00
2018-06-24T06:34:31.478Z,4028.00
2018-06-24T06:35:31.473Z,3404.00
2018-06-24T06:36:31.471Z,3648.00
2018-06-24T06:37:31.472Z,4788.00
2018-06-24T06:38:31.470Z,4144.00
2018-06-24T06:39:31.466Z,3872.00
2018-06-24T06:40:31.465Z,3748.00
2018-06-24T06:41:31.462Z,3448.00
2018-06-24T06:42:31.458Z,3904.00
2018-06-24T06:43:31.459Z,3432.00
2018-06-24T06:44:31.456Z,2816.00
2018-06-24T06:45:31.560Z,3280.00
2018-06-24T06:46:31.455Z,2708.00
2018-06-24T06:47:31.453Z,3608.00
2018-06-24T06:48:31.449Z,3640.00
2018-06-24T06:49:31.449Z,3380.00
2018-06-24T06:50:31.446Z,4452.00
2018-06-24T06:51:31.445Z,4336.00
2018-06-24T06:52:31.442Z,4764.00
2018-06-24T06:53:31.440Z,5168.00
2018-06-24T06:54:31.439Z,4696.00
2018-06-24T06:55:31.443Z,6112.00
2018-06-24T06:56:31.434Z,5540.00
2018-06-24T06:57:31.434Z,5148.00
2018-06-24T06:58:31.433Z,4800.00
2018-06-24T06:59:31.434Z,4736.00
2018-06-24T07:00:31.428Z,4144.00
2018-06-24T07:01:31.427Z,4244.00
2018-06-24T07:02:31.428Z,4156.00
2018-06-24T07:03:31.448Z,3224.00
2018-06-24T07:04:31.421Z,3648.00
2018-06-24T07:05:31.421Z,4068.00
2018-06-24T07:06:31.419Z,3392.00
2018-06-24T07:07:31.420Z,4064.00
2018-06-24T07:08:31.416Z,4252.00
2018-06-24T07:09:31.418Z,3840.00
2018-06-24T07:10:31.411Z,3292.00
2018-06-24T07:11:31.411Z,3368.00
2018-06-24T07:12:31.407Z,3704.00
2018-06-24T07:13:31.413Z,3960.00
2018-06-24T07:14:31.403Z,3868.00
2018-06-24T07:15:31.405Z,4352.00
2018-06-24T07:16:31.402Z,5464.00
2018-06-24T07:17:31.401Z,5904.00
2018-06-24T07:18:31.400Z,6564.00
2018-06-24T07:19:31.398Z,5692.00
2018-06-24T07:20:31.395Z,6528.00
2018-06-24T07:21:31.394Z,6484.00
2018-06-24T07:22:31.396Z,6544.00
2018-06-24T07:23:31.392Z,7088.00
2018-06-24T07:24:31.390Z,7796.00
2018-06-24T07:25:31.392Z,5692.00
2018-06-24T07:26:31.388Z,7168.00
2018-06-24T07:27:31.387Z,7180.00
2018-06-24T07:28:31.384Z,5908.00
2018-06-24T07:29:31.384Z,5884.00
2018-06-24T07:30:31.385Z,3700.00
2018-06-24T07:31:31.383Z,3764.00
2018-06-24T07:32:31.384Z,4152.00
2018-06-24T07:33:31.394Z,3632.00
2018-06-24T07:34:31.378Z,3880.00
2018-06-24T07:35:31.374Z,3976.00
2018-06-24T07:36:31.374Z,4236.00
2018-06-24T07:37:31.371Z,4064.00
2018-06-24T07:38:31.413Z,3996.00
2018-06-24T07:39:31.374Z,4328.00
2018-06-24T07:40:31.371Z,5124.00
2018-06-24T07:41:31.369Z,4236.00
2018-06-24T07:42:31.368Z,3604.00
2018-06-24T07:43:31.367Z,3872.00
2018-06-24T07:44:31.365Z,3208.00
2018-06-24T07:45:31.362Z,3428.00
2018-06-24T07:46:31.363Z,3328.00
2018-06-24T07:47:31.363Z,3312.00
2018-06-24T07:48:31.357Z,3840.00
2018-06-24T07:49:31.361Z,3968.00
2018-06-24T07:50:31.356Z,3724.00
2018-06-24T07:51:31.356Z,4292.00
2018-06-24T07:52:31.355Z,4116.00
2018-06-24T07:53:31.353Z,4680.00
2018-06-24T07:54:31.353Z,4652.00
2018-06-24T07:55:31.351Z,4436.00
2018-06-24T07:56:31.355Z,3872.00
2018-06-24T07:57:31.522Z,3440.00
2018-06-24T07:58:31.347Z,3724.00
2018-06-24T07:59:31.347Z,3664.00
2018-06-24T08:00:31.339Z,3628.00
2018-06-24T08:01:31.342Z,3516.00
2018-06-24T08:02:31.341Z,3544.00
2018-06-24T08:03:31.341Z,2932.00
2018-06-24T08:04:31.339Z,3324.00
2018-06-24T08:05:31.338Z,3512.00
2018-06-24T08:06:31.340Z,2988.00
2018-06-24T08:07:31.336Z,3028.00
2018-06-24T08:08:31.336Z,3024.00
2018-06-24T08:09:31.332Z,2472.00
2018-06-24T08:10:31.330Z,2256.00
2018-06-24T08:11:31.330Z,1548.00
2018-06-24T08:12:31.327Z,1668.00
2018-06-24T08:13:31.326Z,1428.00
2018-06-24T08:14:31.324Z,1660.00
2018-06-24T08:15:31.324Z,1804.00
2018-06-24T08:16:31.321Z,2004.00
2018-06-24T08:17:31.321Z,2008.00
2018-06-24T08:18:31.319Z,2120.00
2018-06-24T08:19:31.316Z,2360.00
2018-06-24T08:20:31.314Z,2508.00
2018-06-24T08:21:31.313Z,3580.00
2018-06-24T08:22:31.312Z,3092.00
2018-06-24T08:23:31.312Z,4692.00
2018-06-24T08:24:31.308Z,5064.00
2018-06-24T08:25:31.308Z,3988.00
2018-06-24T08:26:31.306Z,3096.00
2018-06-24T08:27:31.306Z,3292.00
2018-06-24T08:28:31.303Z,2952.00
2018-06-24T08:29:31.302Z,3452.00
2018-06-24T08:30:31.299Z,2956.00
2018-06-24T08:31:31.309Z,2956.00
2018-06-24T08:32:31.295Z,3632.00
2018-06-24T08:33:31.304Z,4464.00
2018-06-24T08:34:31.295Z,4064.00
2018-06-24T08:35:31.290Z,4640.00
2018-06-24T08:36:31.290Z,4460.00
2018-06-24T08:37:31.287Z,5112.00
2018-06-24T08:38:31.286Z,5772.00
2018-06-24T08:39:31.288Z,6648.00
2018-06-24T08:40:31.280Z,8308.00
2018-06-24T08:41:31.282Z,8388.00
2018-06-24T08:42:31.281Z,8200.00
2018-06-24T08:43:31.278Z,7332.00
2018-06-24T08:44:31.277Z,6552.00
2018-06-24T08:45:31.278Z,6908.00
2018-06-24T08:46:31.274Z,7552.00
2018-06-24T08:47:31.274Z,7652.00
2018-06-24T08:48:31.270Z,6628.00
2018-06-24T08:49:31.270Z,6444.00
2018-06-24T08:50:31.269Z,6924.00
2018-06-24T08:51:31.268Z,5620.00
2018-06-24T08:52:31.266Z,6996.00
2018-06-24T08:53:31.265Z,6004.00
2018-06-24T08:54:31.266Z,7288.00
2018-06-24T08:55:31.264Z,6740.00
2018-06-24T08:56:31.263Z,6528.00
2018-06-24T08:57:31.262Z,6860.00
2018-06-24T08:58:31.261Z,7104.00
2018-06-24T08:59:31.259Z,7836.00
2018-06-24T09:00:31.261Z,7756.00
2018-06-24T09:01:31.257Z,6088.00
2018-06-24T09:02:31.254Z,6144.00
2018-06-24T09:03:31.256Z,6708.00
2018-06-24T09:04:31.255Z,6984.00
2018-06-24T09:05:31.255Z,6836.00
2018-06-24T09:06:31.252Z,6604.00
2018-06-24T09:07:31.262Z,6776.00
2018-06-24T09:08:31.252Z,6352.00
2018-06-24T09:09:31.252Z,7972.00
2018-06-24T09:10:31.249Z,6672.00
2018-06-24T09:11:31.251Z,4976.00
2018-06-24T09:12:31.250Z,4748.00
2018-06-24T09:13:31.248Z,5676.00
2018-06-24T09:14:31.250Z,4960.00
2018-06-24T09:15:31.310Z,5172.00
2018-06-24T09:16:31.247Z,5580.00
2018-06-24T09:17:31.242Z,5980.00
2018-06-24T09:18:31.244Z,4400.00
2018-06-24T09:19:31.244Z,3972.00
2018-06-24T09:20:31.242Z,4664.00
2018-06-24T09:21:31.243Z,4816.00
2018-06-24T09:22:31.245Z,6204.00
2018-06-24T09:23:31.242Z,7560.00
2018-06-24T09:24:31.240Z,6780.00
2018-06-24T09:25:31.242Z,7024.00
2018-06-24T09:26:31.246Z,5812.00
2018-06-24T09:27:31.239Z,5500.00
2018-06-24T09:28:31.246Z,5148.00
2018-06-24T09:29:31.240Z,5036.00
2018-06-24T09:30:31.238Z,4856.00
2018-06-24T09:31:31.238Z,6924.00
2018-06-24T09:32:31.235Z,5848.00
2018-06-24T09:33:31.235Z,6636.00
2018-06-24T09:34:31.243Z,5616.00
2018-06-24T09:35:31.236Z,5132.00
2018-06-24T09:36:31.234Z,4248.00
2018-06-24T09:37:31.234Z,5636.00
2018-06-24T09:38:31.233Z,6168.00
2018-06-24T09:39:31.234Z,5900.00
2018-06-24T09:40:31.232Z,6596.00
2018-06-24T09:41:31.232Z,6212.00
2018-06-24T09:42:31.233Z,7348.00
2018-06-24T09:43:31.230Z,6416.00
2018-06-24T09:44:31.233Z,6188.00
2018-06-24T09:45:31.230Z,9176.00
2018-06-24T09:46:31.229Z,8980.00
2018-06-24T09:47:31.230Z,8880.00
2018-06-24T09:48:31.230Z,9280.00
2018-06-24T09:49:31.227Z,7380.00
2018-06-24T09:50:31.228Z,9160.00
2018-06-24T09:51:31.229Z,8384.00
2018-06-24T09:52:31.240Z,8916.00
2018-06-24T09:53:31.368Z,7064.00
2018-06-24T09:54:31.228Z,6928.00
2018-06-24T09:55:31.228Z,7492.00
2018-06-24T09:56:31.229Z,7592.00
2018-06-24T09:57:31.227Z,8300.00
2018-06-24T09:58:31.226Z,9836.00
2018-06-24T09:59:31.226Z,8760.00
2018-06-24T10:00:31.223Z,10516.00
2018-06-24T10:01:31.225Z,9320.00
2018-06-24T10:02:31.224Z,9808.00
2018-06-24T10:03:31.225Z,10028.00
2018-06-24T10:04:31.228Z,11432.00
2018-06-24T10:05:31.229Z,10200.00
2018-06-24T10:06:31.227Z,9268.00
2018-06-24T10:07:31.227Z,6668.00
2018-06-24T10:08:31.227Z,6588.00
2018-06-24T10:09:31.226Z,6256.00
2018-06-24T10:10:31.228Z,5492.00
2018-06-24T10:11:31.227Z,7572.00
2018-06-24T10:12:31.226Z,6936.00
2018-06-24T10:13:31.226Z,8128.00
2018-06-24T10:14:31.227Z,9836.00
2018-06-24T10:15:31.223Z,11712.00
2018-06-24T10:16:31.228Z,10488.00
2018-06-24T10:17:31.230Z,11876.00
2018-06-24T10:18:31.225Z,11332.00
2018-06-24T10:19:31.228Z,11992.00
2018-06-24T10:20:31.228Z,10692.00
2018-06-24T10:21:31.230Z,9632.00
2018-06-24T10:22:31.228Z,8056.00
2018-06-24T10:23:31.227Z,8160.00
2018-06-24T10:24:31.225Z,6432.00
2018-06-24T10:25:31.232Z,6536.00
2018-06-24T10:26:31.228Z,7720.00
2018-06-24T10:27:31.228Z,9548.00
2018-06-24T10:28:31.226Z,9956.00
2018-06-24T10:29:31.246Z,8556.00
2018-06-24T10:30:31.229Z,7956.00
2018-06-24T10:31:31.227Z,7896.00
2018-06-24T10:32:31.228Z,7376.00
2018-06-24T10:33:31.229Z,9500.00
2018-06-24T10:34:31.228Z,7304.00
2018-06-24T10:35:31.229Z,6120.00
2018-06-24T10:36:31.228Z,6116.00
2018-06-24T10:37:31.229Z,9556.00
2018-06-24T10:38:31.226Z,11792.00
2018-06-24T10:39:31.231Z,13464.00
2018-06-24T10:40:31.229Z,14212.00
2018-06-24T10:41:31.228Z,14524.00
2018-06-24T10:42:31.236Z,14964.00
2018-06-24T10:43:31.230Z,15076.00
2018-06-24T10:44:31.230Z,14236.00
2018-06-24T10:45:31.231Z,13676.00
2018-06-24T10:46:31.233Z,10940.00
2018-06-24T10:47:31.266Z,10108.00
2018-06-24T10:48:31.231Z,8340.00
2018-06-24T10:49:31.239Z,6284.00
2018-06-24T10:50:31.234Z,5164.00
2018-06-24T10:51:31.238Z,4296.00
2018-06-24T10:52:31.233Z,4464.00
2018-06-24T10:53:31.234Z,5884.00
2018-06-24T10:54:31.233Z,7316.00
2018-06-24T10:55:31.236Z,8268.00
2018-06-24T10:56:31.235Z,10112.00
2018-06-24T10:57:31.236Z,9500.00
2018-06-24T10:58:31.235Z,9104.00
2018-06-24T10:59:31.237Z,5584.00
2018-06-24T11:00:31.235Z,4692.00
2018-06-24T11:01:31.237Z,7760.00
2018-06-24T11:02:31.250Z,9144.00
2018-06-24T11:03:31.237Z,7356.00
2018-06-24T11:04:31.240Z,7224.00
2018-06-24T11:05:31.241Z,9896.00
2018-06-24T11:06:31.238Z,10232.00
2018-06-24T11:07:31.240Z,6252.00
2018-06-24T11:08:31.240Z,4036.00
2018-06-24T11:09:31.238Z,4092.00
2018-06-24T11:10:31.241Z,4388.00
2018-06-24T11:11:31.242Z,5140.00
2018-06-24T11:12:31.240Z,7212.00
2018-06-24T11:13:31.243Z,7248.00
2018-06-24T11:14:31.243Z,5756.00
2018-06-24T11:15:31.244Z,5324.00
2018-06-24T11:16:31.285Z,7344.00
2018-06-24T11:17:31.246Z,8352.00
2018-06-24T11:18:31.245Z,8812.00
2018-06-24T11:19:31.243Z,9768.00
2018-06-24T11:20:31.245Z,10476.00
2018-06-24T11:21:31.249Z,11764.00
2018-06-24T11:22:31.245Z,12092.00
2018-06-24T11:23:31.245Z,12248.00
2018-06-24T11:24:31.245Z,10304.00
2018-06-24T11:25:31.245Z,11352.00
2018-06-24T11:26:31.262Z,9740.00
2018-06-24T11:27:31.246Z,11588.00
2018-06-24T11:28:31.245Z,11128.00
2018-06-24T11:29:31.246Z,9688.00
2018-06-24T11:30:31.250Z,10800.00
2018-06-24T11:31:31.246Z,11576.00
2018-06-24T11:32:31.245Z,10128.00
2018-06-24T11:33:31.247Z,10324.00
2018-06-24T11:34:31.251Z,9712.00
2018-06-24T11:35:31.248Z,10148.00
2018-06-24T11:36:31.249Z,11100.00
2018-06-24T11:37:31.245Z,8544.00
2018-06-24T11:38:31.250Z,6212.00
2018-06-24T11:39:31.249Z,5864.00
2018-06-24T11:40:31.249Z,8024.00
2018-06-24T11:41:31.251Z,10956.00
2018-06-24T11:42:31.248Z,12216.00
2018-06-24T11:43:31.254Z,11420.00
2018-06-24T11:44:31.251Z,12680.00
2018-06-24T11:45:31.253Z,12604.00
2018-06-24T11:46:31.250Z,11476.00
2018-06-24T11:47:31.252Z,12012.00
2018-06-24T11:48:31.253Z,12020.00
2018-06-24T11:49:31.254Z,12620.00
2018-06-24T11:50:31.254Z,10744.00
2018-06-24T11:51:31.256Z,11880.00
2018-06-24T11:52:31.259Z,12220.00
2018-06-24T11:53:31.257Z,12196.00
2018-06-24T11:54:31.257Z,11844.00
2018-06-24T11:55:31.258Z,11260.00
2018-06-24T11:56:31.258Z,11092.00
2018-06-24T11:57:31.259Z,9492.00
2018-06-24T11:58:31.260Z,10184.00
2018-06-24T11:59:31.263Z,11408.00
2018-06-24T12:00:31.263Z,11736.00
2018-06-24T12:01:31.263Z,11624.00
2018-06-24T12:02:31.324Z,11436.00
2018-06-24T12:03:31.266Z,9352.00
2018-06-24T12:04:31.266Z,10420.00
2018-06-24T12:05:31.264Z,8892.00
2018-06-24T12:06:31.269Z,8616.00
2018-06-24T12:07:31.269Z,10908.00
2018-06-24T12:08:31.268Z,10544.00
2018-06-24T12:09:31.271Z,10668.00
2018-06-24T12:10:31.269Z,9824.00
2018-06-24T12:11:31.267Z,8704.00
2018-06-24T12:12:31.271Z,7248.00
2018-06-24T12:13:31.273Z,7936.00
2018-06-24T12:14:31.275Z,8476.00
2018-06-24T12:15:31.274Z,8960.00
2018-06-24T12:16:31.275Z,8772.00
2018-06-24T12:17:31.278Z,7240.00
2018-06-24T12:18:31.280Z,7928.00
2018-06-24T12:19:31.279Z,8604.00
2018-06-24T12:20:31.280Z,10028.00
2018-06-24T12:21:31.281Z,10640.00
2018-06-24T12:22:31.281Z,10888.00